Time;durP1;ratioP1;P1;durP2;ratioP2;P2;SDS_P1;SDS_P2;PMS_P1;PMS_P2;Temp;Humidity;BMP_temperature;BMP_pressure;BME280_temperature;BME280_humidity;BME280_pressure;Samples;Min_cycle;Max_cycle;Signal;HPM_P1;HPM_P2
2021/11/15 00:01:51;;;;;;;0.68;0.68;;;3.40;99.90;;;;;;5090508;28;20694;-69
2021/11/15 00:04:20;;;;;;;0.77;0.77;;;3.40;99.90;;;;;;5090805;28;20197;-73
2021/11/15 00:06:46;;;;;;;0.70;0.70;;;3.40;99.90;;;;;;5071965;28;20208;-69
2021/11/15 00:09:13;;;;;;;0.70;0.70;;;3.40;99.90;;;;;;5089839;28;20294;-71
2021/11/15 00:11:39;;;;;;;0.70;0.70;;;3.40;99.90;;;;;;5091101;28;20199;-69
2021/11/15 00:14:06;;;;;;;0.80;0.80;;;3.40;99.90;;;;;;5089745;28;20215;-69
2021/11/15 00:16:32;;;;;;;0.60;0.60;;;3.40;99.90;;;;;;5089667;28;20294;-70
2021/11/15 00:18:58;;;;;;;0.70;0.70;;;3.40;99.90;;;;;;5089864;28;20278;-69
2021/11/15 00:21:24;;;;;;;0.70;0.70;;;3.40;99.90;;;;;;5071387;28;20204;-70
2021/11/15 00:23:50;;;;;;;0.60;0.60;;;3.40;99.90;;;;;;5090832;28;20200;-69
2021/11/15 00:26:16;;;;;;;0.60;0.60;;;3.40;99.90;;;;;;5087751;28;20561;-69
2021/11/15 00:28:42;;;;;;;0.60;0.60;;;3.40;99.90;;;;;;5087466;28;20208;-69
2021/11/15 00:31:08;;;;;;;0.60;0.60;;;3.40;99.90;;;;;;5089917;28;20607;-70
2021/11/15 00:33:33;;;;;;;0.70;0.70;;;3.40;99.90;;;;;;5090805;28;20192;-71
2021/11/15 00:36:02;;;;;;;0.50;0.50;;;3.40;99.90;;;;;;5091309;28;20212;-70
2021/11/15 00:38:28;;;;;;;0.60;0.60;;;3.40;99.90;;;;;;5091945;28;20197;-72
2021/11/15 00:40:54;;;;;;;0.63;0.63;;;3.40;99.90;;;;;;5091247;28;20576;-73
2021/11/15 00:43:19;;;;;;;0.70;0.70;;;3.40;99.90;;;;;;5074365;28;20253;-72
2021/11/15 00:45:45;;;;;;;0.80;0.80;;;3.40;99.90;;;;;;5093012;28;20222;-74
2021/11/15 00:48:11;;;;;;;0.52;0.52;;;3.40;99.90;;;;;;5088251;28;20681;-72
2021/11/15 00:50:38;;;;;;;0.60;0.60;;;3.40;99.90;;;;;;5090993;28;20287;-72
2021/11/15 00:53:04;;;;;;;0.60;0.60;;;3.40;99.90;;;;;;5090602;28;20611;-70
2021/11/15 00:55:32;;;;;;;0.60;0.60;;;3.40;99.90;;;;;;5089357;28;20195;-70
2021/11/15 00:57:59;;;;;;;0.60;0.60;;;3.40;99.90;;;;;;5090483;28;20283;-70
2021/11/15 01:00:27;;;;;;;0.60;0.60;;;3.40;99.90;;;;;;5089131;28;20228;-70
2021/11/15 01:02:54;;;;;;;0.60;0.60;;;3.40;99.90;;;;;;5068288;28;20201;-70
2021/11/15 01:05:20;;;;;;;0.50;0.50;;;3.40;99.90;;;;;;5088309;28;20569;-71
2021/11/15 01:07:46;;;;;;;0.60;0.60;;;3.40;99.90;;;;;;5091712;28;20216;-70
2021/11/15 01:10:15;;;;;;;0.50;0.50;;;3.40;99.90;;;;;;5072411;28;20682;-71
2021/11/15 01:12:41;;;;;;;2.40;2.25;;;3.40;99.90;;;;;;5090643;28;20659;-70
2021/11/15 01:15:10;;;;;;;0.70;0.70;;;3.40;99.90;;;;;;5089295;28;20253;-70
2021/11/15 01:17:36;;;;;;;0.60;0.60;;;3.40;99.90;;;;;;5071964;28;20203;-70
2021/11/15 01:20:05;;;;;;;0.60;0.60;;;3.50;99.90;;;;;;5084194;28;20208;-70
2021/11/15 01:22:31;;;;;;;0.70;0.70;;;3.40;99.90;;;;;;5090164;28;20196;-70
2021/11/15 01:24:57;;;;;;;0.52;0.52;;;3.40;99.90;;;;;;5090347;28;20235;-69
2021/11/15 01:27:24;;;;;;;0.57;0.57;;;3.40;99.90;;;;;;5090291;28;20236;-70
2021/11/15 01:29:51;;;;;;;0.70;0.70;;;3.40;99.90;;;;;;5070702;28;20196;-70
2021/11/15 01:32:17;;;;;;;0.60;0.60;;;3.40;99.90;;;;;;5090639;28;20196;-70
2021/11/15 01:34:42;;;;;;;0.63;0.63;;;3.40;99.90;;;;;;5090247;28;20694;-70
2021/11/15 01:37:08;;;;;;;0.70;0.70;;;3.40;99.90;;;;;;5089218;28;20263;-70
2021/11/15 01:39:34;;;;;;;0.70;0.70;;;3.40;99.90;;;;;;5090539;28;20283;-70
2021/11/15 01:42:00;;;;;;;0.55;0.55;;;3.40;99.90;;;;;;5094109;28;20275;-70
2021/11/15 01:44:26;;;;;;;0.60;0.60;;;3.40;99.90;;;;;;5093909;28;20299;-69
2021/11/15 01:46:52;;;;;;;0.60;0.60;;;3.40;99.90;;;;;;5094906;28;20697;-70
2021/11/15 01:49:18;;;;;;;0.60;0.60;;;3.40;99.90;;;;;;5093881;28;20287;-70
2021/11/15 01:51:44;;;;;;;0.50;0.50;;;3.40;99.90;;;;;;5094151;28;20196;-70
2021/11/15 01:54:09;;;;;;;0.57;0.57;;;3.40;99.90;;;;;;5075434;28;20286;-70
2021/11/15 01:56:35;;;;;;;0.50;0.50;;;3.40;99.90;;;;;;5073881;28;20651;-70
2021/11/15 01:59:02;;;;;;;0.50;0.50;;;3.40;99.90;;;;;;5074996;28;20239;-70
2021/11/15 02:01:29;;;;;;;0.52;0.52;;;3.50;99.90;;;;;;5075290;28;20200;-70
2021/11/15 02:03:55;;;;;;;0.60;0.60;;;3.50;99.90;;;;;;5075344;28;20682;-70
2021/11/15 02:06:21;;;;;;;0.57;0.57;;;3.50;99.90;;;;;;5075238;28;20228;-71
2021/11/15 02:08:47;;;;;;;0.60;0.60;;;3.50;99.90;;;;;;5074922;28;20212;-70
2021/11/15 02:11:12;;;;;;;0.70;0.70;;;3.50;99.90;;;;;;5093890;28;20201;-70
2021/11/15 02:13:38;;;;;;;0.70;0.70;;;3.50;99.90;;;;;;5093158;28;20234;-70
2021/11/15 02:16:04;;;;;;;0.90;0.90;;;3.50;99.90;;;;;;5091247;28;20348;-70
2021/11/15 02:18:30;;;;;;;0.70;0.70;;;3.50;99.90;;;;;;5093013;28;20291;-70
2021/11/15 02:20:58;;;;;;;0.70;0.70;;;3.50;99.90;;;;;;5108122;28;20227;-70
2021/11/15 02:23:26;;;;;;;0.70;0.70;;;3.50;99.90;;;;;;5095448;28;20196;-70
2021/11/15 02:25:54;;;;;;;0.60;0.60;;;3.50;99.90;;;;;;5074590;28;20876;-69
2021/11/15 02:28:29;;;;;;;0.63;0.63;;;3.40;99.90;;;;;;5091565;28;20643;-70
2021/11/15 02:30:55;;;;;;;0.70;0.70;;;3.40;99.90;;;;;;5093063;28;20199;-70
2021/11/15 02:33:21;;;;;;;0.60;0.60;;;3.50;99.90;;;;;;5075374;28;20216;-70
2021/11/15 02:35:47;;;;;;;0.70;0.70;;;3.50;99.90;;;;;;5093979;28;20566;-69
2021/11/15 02:38:13;;;;;;;0.60;0.60;;;3.50;99.90;;;;;;5074674;28;20204;-69
2021/11/15 02:40:39;;;;;;;0.70;0.70;;;3.50;99.90;;;;;;5092682;28;20658;-69
2021/11/15 02:43:05;;;;;;;0.57;0.57;;;3.50;99.90;;;;;;5093788;28;20220;-70
2021/11/15 02:45:32;;;;;;;0.50;0.50;;;3.50;99.90;;;;;;5073277;28;20688;-69
2021/11/15 02:47:59;;;;;;;0.50;0.50;;;3.40;99.90;;;;;;5075389;28;20342;-70
2021/11/15 02:50:30;;;;;;;0.57;0.57;;;3.50;99.90;;;;;;5073052;28;20682;-69
2021/11/15 02:53:00;;;;;;;0.57;0.57;;;3.50;99.90;;;;;;5074157;28;20262;-69
2021/11/15 02:55:27;;;;;;;0.55;0.55;;;3.50;99.90;;;;;;5092359;28;20603;-69
2021/11/15 02:57:55;;;;;;;0.52;0.52;;;3.50;99.90;;;;;;5091234;28;20238;-70
2021/11/15 03:00:26;;;;;;;0.70;0.70;;;3.50;99.90;;;;;;5090467;28;20612;-70
2021/11/15 03:02:55;;;;;;;0.57;0.57;;;3.50;99.90;;;;;;5071091;28;20535;-70
2021/11/15 03:05:26;;;;;;;0.57;0.57;;;3.50;99.90;;;;;;5092376;28;20302;-70
2021/11/15 03:07:53;;;;;;;0.60;0.60;;;3.50;99.90;;;;;;5073898;28;20228;-70
2021/11/15 03:10:19;;;;;;;0.60;0.60;;;3.50;99.90;;;;;;5090967;28;20654;-70
2021/11/15 03:12:45;;;;;;;0.50;0.50;;;3.50;99.90;;;;;;5092419;28;20200;-70
2021/11/15 03:15:22;;;;;;;0.70;0.70;;;3.50;99.90;;;;;;5074356;28;20208;-70
2021/11/15 03:17:55;;;;;;;0.57;0.57;;;3.50;99.90;;;;;;5091106;28;20666;-69
2021/11/15 03:20:22;;;;;;;0.50;0.50;;;3.50;99.90;;;;;;5090908;28;20199;-70
2021/11/15 03:22:48;;;;;;;0.70;0.70;;;3.40;99.90;;;;;;5091046;28;20212;-69
2021/11/15 03:25:15;;;;;;;0.70;0.70;;;3.40;99.90;;;;;;5072177;28;20232;-69
2021/11/15 03:27:40;;;;;;;0.70;0.70;;;3.40;99.90;;;;;;5071979;28;20209;-70
2021/11/15 03:30:07;;;;;;;0.70;0.70;;;3.40;99.90;;;;;;5067112;28;20207;-70
2021/11/15 03:32:33;;;;;;;0.50;0.50;;;3.50;99.90;;;;;;5075524;28;20279;-69
2021/11/15 03:35:01;;;;;;;0.70;0.70;;;3.50;99.90;;;;;;5076496;28;20205;-69
2021/11/15 03:37:27;;;;;;;0.60;0.60;;;3.50;99.90;;;;;;5077108;28;20291;-69
2021/11/15 03:39:53;;;;;;;0.70;0.70;;;3.50;99.90;;;;;;5069556;28;20295;-69
2021/11/15 03:42:18;;;;;;;0.57;0.57;;;3.50;99.90;;;;;;5079693;28;20228;-69
2021/11/15 03:44:44;;;;;;;0.65;0.65;;;3.50;99.90;;;;;;5080547;28;20217;-69
2021/11/15 03:47:09;;;;;;;0.60;0.60;;;3.50;99.90;;;;;;5070004;28;20204;-70
2021/11/15 03:49:35;;;;;;;0.60;0.60;;;3.50;99.90;;;;;;5083886;28;20686;-70
2021/11/15 03:52:01;;;;;;;0.60;0.60;;;3.50;99.90;;;;;;5071165;28;20197;-69
2021/11/15 03:54:26;;;;;;;0.52;0.52;;;3.40;99.90;;;;;;5069876;28;20208;-69
2021/11/15 03:56:52;;;;;;;0.60;0.60;;;3.50;99.90;;;;;;5071098;28;20231;-69
2021/11/15 03:59:18;;;;;;;0.70;0.70;;;3.40;99.90;;;;;;5087486;28;20678;-70
2021/11/15 04:01:44;;;;;;;0.55;0.55;;;3.40;99.90;;;;;;5058347;28;20232;-69
2021/11/15 04:04:16;;;;;;;0.45;0.45;;;3.40;99.90;;;;;;5071197;28;20296;-69
2021/11/15 04:06:49;;;;;;;0.60;0.60;;;3.40;99.90;;;;;;5070531;28;20200;-70
2021/11/15 04:09:16;;;;;;;0.50;0.50;;;3.40;99.90;;;;;;5088279;28;20628;-69
2021/11/15 04:11:42;;;;;;;0.60;0.60;;;3.40;99.90;;;;;;5088478;28;20200;-69
2021/11/15 04:14:15;;;;;;;0.60;0.60;;;3.40;99.90;;;;;;5071414;28;20616;-69
2021/11/15 04:16:43;;;;;;;0.65;0.65;;;3.40;99.90;;;;;;5070126;28;20220;-69
2021/11/15 04:19:16;;;;;;;0.70;0.70;;;3.40;99.90;;;;;;5071307;28;20205;-69
2021/11/15 04:21:43;;;;;;;0.50;0.50;;;3.40;99.90;;;;;;5070664;28;20663;-70
2021/11/15 04:24:09;;;;;;;0.50;0.50;;;3.30;99.90;;;;;;5072384;28;20200;-69
2021/11/15 04:26:35;;;;;;;0.77;0.77;;;3.30;99.90;;;;;;5087312;28;20208;-69
2021/11/15 04:29:01;;;;;;;0.60;0.60;;;3.30;99.90;;;;;;5089384;28;20543;-70
2021/11/15 04:31:27;;;;;;;0.70;0.70;;;3.40;99.90;;;;;;5089589;28;20292;-69
2021/11/15 04:33:55;;;;;;;0.60;0.60;;;3.40;99.90;;;;;;5090951;28;20208;-69
2021/11/15 04:36:21;;;;;;;0.60;0.60;;;3.40;99.90;;;;;;5090689;28;20283;-69
2021/11/15 04:38:47;;;;;;;0.60;0.60;;;3.40;99.90;;;;;;5089316;28;20211;-69
2021/11/15 04:41:14;;;;;;;0.60;0.60;;;3.50;99.90;;;;;;5089343;28;20224;-69
2021/11/15 04:43:39;;;;;;;0.70;0.70;;;3.50;99.90;;;;;;5089353;28;20215;-69
2021/11/15 04:46:05;;;;;;;0.60;0.60;;;3.50;99.90;;;;;;5089396;28;20229;-69
2021/11/15 04:48:31;;;;;;;0.65;0.65;;;3.50;99.90;;;;;;5089665;28;20265;-69
2021/11/15 04:50:57;;;;;;;0.70;0.70;;;3.50;99.90;;;;;;5072755;28;20202;-69
2021/11/15 04:53:23;;;;;;;0.70;0.70;;;3.50;99.90;;;;;;5072341;28;20196;-70
2021/11/15 04:55:49;;;;;;;0.55;0.55;;;3.60;99.90;;;;;;5089402;28;20218;-69
2021/11/15 04:58:15;;;;;;;0.70;0.70;;;3.70;99.90;;;;;;5089210;28;20205;-70
2021/11/15 05:00:43;;;;;;;0.60;0.60;;;3.70;99.90;;;;;;5089081;28;20264;-69
2021/11/15 05:03:08;;;;;;;0.60;0.60;;;3.70;99.90;;;;;;5072845;28;20203;-69
2021/11/15 05:05:34;;;;;;;0.70;0.70;;;3.70;99.90;;;;;;5090390;28;20200;-70
2021/11/15 05:08:00;;;;;;;0.63;0.63;;;3.70;99.90;;;;;;5071621;28;20587;-69
2021/11/15 05:10:28;;;;;;;1.00;1.00;;;3.70;99.90;;;;;;5088766;28;20204;-69
2021/11/15 05:12:56;;;;;;;0.70;0.70;;;3.70;99.90;;;;;;5088988;28;20204;-70
2021/11/15 05:15:25;;;;;;;0.57;0.57;;;3.70;99.90;;;;;;5092279;28;20667;-69
2021/11/15 05:17:51;;;;;;;0.85;0.85;;;3.70;99.90;;;;;;5097439;28;20203;-69
2021/11/15 05:20:19;;;;;;;0.73;0.73;;;3.70;99.90;;;;;;5092797;28;20706;-69
2021/11/15 05:22:44;;;;;;;0.70;0.70;;;3.70;99.90;;;;;;5092918;28;20643;-70
2021/11/15 05:25:10;;;;;;;0.80;0.80;;;3.70;99.90;;;;;;5094139;28;20289;-70
2021/11/15 05:27:37;;;;;;;0.65;0.65;;;3.70;99.90;;;;;;5093917;28;20223;-69
2021/11/15 05:30:08;;;;;;;0.80;0.80;;;3.70;99.90;;;;;;5094179;28;20204;-69
2021/11/15 05:32:34;;;;;;;0.55;0.55;;;3.70;99.90;;;;;;5075767;28;20201;-70
2021/11/15 05:35:00;;;;;;;0.70;0.70;;;3.70;99.90;;;;;;5095297;28;20202;-69
2021/11/15 05:37:26;;;;;;;0.70;0.70;;;3.70;99.90;;;;;;5093953;28;20671;-70
2021/11/15 05:39:52;;;;;;;0.60;0.60;;;3.70;99.90;;;;;;5092527;28;20250;-69
2021/11/15 05:42:18;;;;;;;0.70;0.70;;;3.70;99.90;;;;;;5094303;28;20269;-69
2021/11/15 05:44:43;;;;;;;0.63;0.63;;;3.70;99.90;;;;;;5093538;28;20201;-69
2021/11/15 05:47:09;;;;;;;0.52;0.52;;;3.70;99.90;;;;;;5092365;28;20196;-70
2021/11/15 05:49:35;;;;;;;0.70;0.70;;;3.70;99.90;;;;;;5093737;28;20278;-69
2021/11/15 05:52:01;;;;;;;0.80;0.80;;;3.70;99.90;;;;;;5092528;28;20200;-71
2021/11/15 05:54:26;;;;;;;0.68;0.68;;;3.70;99.90;;;;;;5093911;28;20204;-69
2021/11/15 05:56:53;;;;;;;0.70;0.70;;;3.70;99.90;;;;;;5094302;28;20253;-70
2021/11/15 05:59:18;;;;;;;0.70;0.70;;;3.70;99.90;;;;;;5093787;28;20234;-70
2021/11/15 06:01:44;;;;;;;0.63;0.63;;;3.80;99.90;;;;;;5092029;28;20231;-69
2021/11/15 06:04:11;;;;;;;0.50;0.50;;;3.80;99.90;;;;;;5075320;28;20238;-70
2021/11/15 06:06:37;;;;;;;0.60;0.60;;;3.80;99.90;;;;;;5092187;28;20283;-69
2021/11/15 06:09:03;;;;;;;0.60;0.60;;;3.80;99.90;;;;;;5092285;28;20298;-70
2021/11/15 06:11:28;;;;;;;0.60;0.60;;;3.90;99.90;;;;;;5073634;28;20292;-69
2021/11/15 06:13:54;;;;;;;0.55;0.55;;;3.90;99.90;;;;;;5092130;28;20710;-70
2021/11/15 06:16:20;;;;;;;0.55;0.55;;;4.00;99.90;;;;;;5093210;28;20216;-70
2021/11/15 06:18:45;;;;;;;0.85;0.85;;;3.90;99.90;;;;;;5091810;28;20283;-71
2021/11/15 06:21:12;;;;;;;0.73;0.73;;;4.00;99.90;;;;;;5091848;28;20548;-71
2021/11/15 06:23:38;;;;;;;0.55;0.55;;;4.00;99.90;;;;;;5092935;28;20198;-70
2021/11/15 06:26:04;;;;;;;0.70;0.70;;;4.00;99.90;;;;;;5091756;28;20224;-71
2021/11/15 06:28:32;;;;;;;0.50;0.50;;;3.90;99.90;;;;;;5091656;28;20212;-72
2021/11/15 06:30:58;;;;;;;0.70;0.70;;;4.00;99.90;;;;;;5075685;28;20670;-72
2021/11/15 06:33:24;;;;;;;0.65;0.65;;;4.00;99.90;;;;;;5108488;28;20340;-70
2021/11/15 06:35:49;;;;;;;0.60;0.60;;;4.00;99.90;;;;;;5093116;28;20694;-71
2021/11/15 06:38:15;;;;;;;0.70;0.70;;;3.90;99.90;;;;;;5109646;28;20222;-71
2021/11/15 06:40:41;;;;;;;0.63;0.63;;;3.90;99.90;;;;;;5073065;28;20287;-70
2021/11/15 06:43:07;;;;;;;0.70;0.70;;;3.90;99.90;;;;;;5068752;28;20206;-69
2021/11/15 06:45:33;;;;;;;0.52;0.52;;;3.90;99.90;;;;;;5092742;28;20439;-69
2021/11/15 06:47:59;;;;;;;0.70;0.70;;;3.80;99.90;;;;;;5092815;28;20541;-70
2021/11/15 06:50:25;;;;;;;0.70;0.70;;;3.80;99.90;;;;;;5092627;28;20199;-70
2021/11/15 06:52:52;;;;;;;0.70;0.70;;;3.80;99.90;;;;;;5101906;28;20200;-68
2021/11/15 06:55:21;;;;;;;0.60;0.60;;;3.80;99.90;;;;;;5093329;28;20282;-70
2021/11/15 06:57:47;;;;;;;0.57;0.57;;;3.80;99.90;;;;;;5092455;28;20573;-69
2021/11/15 07:00:21;;;;;;;0.80;0.80;;;3.90;99.90;;;;;;5091211;28;20668;-69
2021/11/15 07:02:49;;;;;;;0.70;0.70;;;3.90;99.90;;;;;;5090951;28;20663;-70
2021/11/15 07:05:16;;;;;;;0.63;0.63;;;3.90;99.90;;;;;;5092327;28;20196;-70
2021/11/15 07:07:42;;;;;;;0.68;0.68;;;3.90;99.90;;;;;;5091832;28;20651;-70
2021/11/15 07:10:10;;;;;;;0.60;0.60;;;4.00;99.90;;;;;;5072632;28;20287;-70
2021/11/15 07:12:36;;;;;;;0.70;0.70;;;3.90;99.90;;;;;;5090547;28;20567;-70
2021/11/15 07:15:03;;;;;;;0.55;0.55;;;3.90;99.90;;;;;;5092240;28;20196;-73
2021/11/15 07:17:28;;;;;;;0.68;0.68;;;3.90;99.90;;;;;;5091981;28;20211;-70
2021/11/15 07:19:54;;;;;;;0.60;0.60;;;3.90;99.90;;;;;;5090584;28;20204;-70
2021/11/15 07:22:20;;;;;;;0.60;0.60;;;3.90;99.90;;;;;;5090737;28;20261;-70
2021/11/15 07:24:47;;;;;;;0.60;0.60;;;3.90;99.90;;;;;;5091530;28;20231;-69
2021/11/15 07:27:13;;;;;;;0.60;0.60;;;3.90;99.90;;;;;;5080899;28;20243;-69
2021/11/15 07:29:39;;;;;;;0.70;0.70;;;3.90;99.90;;;;;;5062868;28;20742;-70
2021/11/15 07:32:10;;;;;;;0.70;0.70;;;3.90;99.90;;;;;;5090499;28;20287;-70
2021/11/15 07:34:36;;;;;;;0.65;0.65;;;3.90;99.90;;;;;;5090427;28;20276;-70
2021/11/15 07:37:02;;;;;;;0.60;0.60;;;3.90;99.90;;;;;;5091301;28;20272;-70
2021/11/15 07:39:28;;;;;;;0.60;0.60;;;3.90;99.90;;;;;;5072096;28;20208;-71
2021/11/15 07:41:54;;;;;;;0.50;0.50;;;3.90;99.90;;;;;;5073256;28;20208;-70
2021/11/15 07:44:20;;;;;;;0.70;0.70;;;4.00;99.90;;;;;;5090281;28;20208;-71
2021/11/15 07:46:48;;;;;;;0.73;0.73;;;4.00;99.90;;;;;;5091691;28;20203;-70
2021/11/15 07:49:14;;;;;;;0.52;0.52;;;4.10;99.90;;;;;;5091621;28;20742;-70
2021/11/15 07:51:39;;;;;;;0.60;0.60;;;4.10;99.90;;;;;;5090456;28;20306;-71
2021/11/15 07:54:07;;;;;;;0.60;0.60;;;4.10;99.90;;;;;;5091556;28;20196;-71
2021/11/15 07:56:33;;;;;;;0.60;0.60;;;4.20;99.90;;;;;;5090576;28;20200;-69
2021/11/15 07:58:58;;;;;;;0.68;0.68;;;4.20;99.90;;;;;;5091677;28;20196;-71
2021/11/15 08:01:24;;;;;;;0.60;0.60;;;4.20;99.90;;;;;;5072792;28;20570;-70
2021/11/15 08:03:50;;;;;;;0.63;0.63;;;4.30;99.90;;;;;;5091164;28;20204;-71
2021/11/15 08:06:16;;;;;;;0.60;0.60;;;4.30;99.90;;;;;;5091396;28;24554;-70
2021/11/15 08:08:42;;;;;;;0.60;0.60;;;4.30;99.90;;;;;;5091141;28;20208;-70
2021/11/15 08:11:09;;;;;;;0.63;0.63;;;4.30;99.90;;;;;;5090165;28;20245;-71
2021/11/15 08:13:35;;;;;;;0.70;0.70;;;4.40;99.90;;;;;;5108795;28;20194;-71
2021/11/15 08:16:01;;;;;;;0.60;0.60;;;4.40;99.90;;;;;;5073272;28;20200;-69
2021/11/15 08:18:27;;;;;;;0.50;0.50;;;4.40;99.90;;;;;;5091231;28;20636;-69
2021/11/15 08:20:55;;;;;;;0.55;0.55;;;4.50;99.90;;;;;;5105465;28;20242;-69
2021/11/15 08:23:21;;;;;;;0.70;0.70;;;4.50;99.90;;;;;;5091739;28;20200;-69
2021/11/15 08:26:24;;;;;;;0.40;0.40;;;4.50;99.90;;;;;;5089472;28;20281;-70
2021/11/15 08:28:49;;;;;;;0.52;0.52;;;4.50;99.90;;;;;;5073076;28;20209;-70
2021/11/15 08:31:15;;;;;;;0.70;0.70;;;4.50;99.90;;;;;;5090700;28;20662;-69
2021/11/15 08:33:41;;;;;;;0.60;0.60;;;4.60;99.90;;;;;;5071246;28;20294;-69
2021/11/15 08:36:08;;;;;;;0.70;0.70;;;4.60;99.90;;;;;;5090513;28;20728;-69
2021/11/15 08:38:45;;;;;;;0.70;0.70;;;4.60;99.90;;;;;;5070248;28;20208;-71
2021/11/15 08:41:15;;;;;;;0.73;0.73;;;4.60;99.90;;;;;;5071522;28;20207;-70
2021/11/15 08:43:42;;;;;;;0.70;0.70;;;4.60;99.90;;;;;;5073854;28;20210;-70
2021/11/15 08:46:09;;;;;;;0.55;0.55;;;4.60;99.90;;;;;;5089520;28;20667;-69
2021/11/15 08:48:36;;;;;;;0.80;0.80;;;4.60;99.90;;;;;;5071479;28;20262;-70
2021/11/15 08:51:07;;;;;;;0.70;0.70;;;4.60;99.90;;;;;;5076733;28;20204;-69
2021/11/15 08:53:33;;;;;;;0.70;0.70;;;4.50;99.90;;;;;;5094642;28;20200;-71
2021/11/15 08:55:59;;;;;;;0.60;0.60;;;4.50;99.90;;;;;;5093597;28;20211;-69
2021/11/15 08:58:24;;;;;;;0.80;0.80;;;4.50;99.90;;;;;;5094871;28;20709;-70
2021/11/15 09:00:50;;;;;;;0.60;0.60;;;4.60;99.90;;;;;;5093073;28;20199;-70
2021/11/15 09:03:17;;;;;;;0.65;0.65;;;4.50;99.90;;;;;;5094966;28;20200;-70
2021/11/15 09:05:44;;;;;;;0.68;0.68;;;4.60;99.90;;;;;;5094471;28;20674;-69
2021/11/15 09:08:11;;;;;;;0.70;0.70;;;4.60;99.90;;;;;;5087069;28;20208;-69
2021/11/15 09:10:37;;;;;;;0.50;0.50;;;4.60;99.90;;;;;;5090910;28;20208;-69
2021/11/15 09:13:02;;;;;;;0.70;0.70;;;4.60;99.90;;;;;;5093320;28;20211;-70
2021/11/15 09:15:28;;;;;;;0.60;0.60;;;4.60;99.90;;;;;;5093066;28;20200;-70
2021/11/15 09:17:54;;;;;;;0.70;0.70;;;4.60;99.90;;;;;;5093849;28;20210;-71
2021/11/15 09:20:19;;;;;;;0.70;0.70;;;4.60;99.90;;;;;;5093238;28;20216;-71
2021/11/15 09:22:45;;;;;;;0.70;0.70;;;4.70;99.90;;;;;;5093706;28;20566;-71
2021/11/15 09:25:12;;;;;;;0.60;0.60;;;4.70;99.90;;;;;;5094127;28;20227;-71
2021/11/15 09:27:41;;;;;;;0.77;0.77;;;4.70;99.90;;;;;;5092416;28;20204;-71
2021/11/15 09:30:10;;;;;;;0.68;0.68;;;4.70;99.90;;;;;;5074781;28;20208;-70
2021/11/15 09:32:36;;;;;;;0.60;0.60;;;4.70;99.90;;;;;;5093888;28;20211;-70
2021/11/15 09:35:02;;;;;;;0.70;0.70;;;4.70;99.90;;;;;;5092592;28;20204;-72
2021/11/15 09:37:28;;;;;;;0.60;0.60;;;4.80;99.90;;;;;;5092687;28;20313;-70
2021/11/15 09:39:55;;;;;;;0.65;0.65;;;4.80;99.90;;;;;;5074645;28;20307;-70
2021/11/15 09:42:21;;;;;;;0.80;0.80;;;4.80;99.90;;;;;;5074141;28;20204;-69
2021/11/15 09:44:47;;;;;;;0.70;0.70;;;4.80;99.90;;;;;;5094060;28;20275;-70
2021/11/15 09:47:13;;;;;;;0.70;0.70;;;4.80;99.90;;;;;;5074162;28;20235;-71
2021/11/15 09:49:39;;;;;;;0.70;0.70;;;4.80;99.90;;;;;;5093618;28;20219;-71
2021/11/15 09:52:09;;;;;;;0.60;0.60;;;4.80;99.90;;;;;;5075513;28;20200;-72
2021/11/15 09:54:35;;;;;;;0.57;0.57;;;4.90;99.90;;;;;;5092006;28;20200;-72
2021/11/15 09:57:01;;;;;;;0.63;0.63;;;4.90;99.90;;;;;;5099356;28;20613;-71
2021/11/15 09:59:29;;;;;;;0.60;0.60;;;4.90;99.90;;;;;;5103956;28;20693;-70
2021/11/15 10:01:57;;;;;;;0.60;0.60;;;4.90;99.90;;;;;;5073999;28;20238;-71
2021/11/15 10:04:24;;;;;;;0.73;0.73;;;5.00;99.90;;;;;;5093275;28;20686;-71
2021/11/15 10:06:52;;;;;;;0.50;0.50;;;5.00;99.90;;;;;;5091967;28;20192;-71
2021/11/15 10:09:38;;;;;;;0.70;0.70;;;5.00;99.90;;;;;;5075221;28;20216;-69
2021/11/15 10:12:14;;;;;;;0.70;0.70;;;5.00;99.90;;;;;;5093324;28;20579;-72
2021/11/15 10:15:06;;;;;;;0.70;0.70;;;5.00;99.90;;;;;;5092025;28;20811;-70
2021/11/15 10:17:40;;;;;;;0.60;0.60;;;5.10;99.90;;;;;;5075118;28;20196;-70
2021/11/15 10:20:06;;;;;;;0.70;0.70;;;5.10;99.90;;;;;;5093075;28;20206;-71
2021/11/15 10:22:32;;;;;;;0.70;0.70;;;5.10;99.90;;;;;;5074657;28;20336;-70
2021/11/15 10:24:58;;;;;;;0.50;0.50;;;5.20;99.90;;;;;;5074663;28;20608;-70
2021/11/15 10:27:27;;;;;;;0.63;0.63;;;5.20;99.90;;;;;;5105918;28;20203;-70
2021/11/15 10:29:53;;;;;;;0.70;0.70;;;5.30;99.90;;;;;;5099151;28;20200;-70
2021/11/15 10:32:32;;;;;;;0.80;0.80;;;5.30;99.90;;;;;;5093096;28;20260;-71
2021/11/15 10:35:00;;;;;;;7.30;6.15;;;5.40;99.90;;;;;;5073551;28;20196;-71
2021/11/15 10:37:29;;;;;;;26.23;11.90;;;5.40;99.90;;;;;;5074687;28;20296;-70
2021/11/15 10:40:03;;;;;;;2.25;1.88;;;5.50;99.90;;;;;;5091781;28;20285;-70
2021/11/15 10:42:45;;;;;;;0.40;0.40;;;5.50;99.90;;;;;;5057700;28;20277;-70
2021/11/15 10:45:17;;;;;;;0.60;0.60;;;5.60;99.90;;;;;;5077165;28;20571;-70
2021/11/15 10:47:43;;;;;;;1.10;1.10;;;5.60;99.90;;;;;;5092754;28;20204;-70
2021/11/15 10:50:22;;;;;;;0.70;0.70;;;5.60;99.90;;;;;;5092961;28;20284;-70
2021/11/15 10:53:08;;;;;;;0.60;0.60;;;5.60;99.90;;;;;;5079496;28;20196;-69
2021/11/15 10:55:38;;;;;;;0.80;0.80;;;5.60;99.90;;;;;;5073979;28;20319;-71
2021/11/15 10:58:24;;;;;;;0.63;0.63;;;5.60;99.90;;;;;;5074538;28;20208;-70
2021/11/15 11:00:55;;;;;;;0.70;0.70;;;5.60;99.90;;;;;;5090617;28;20208;-73
2021/11/15 11:03:25;;;;;;;0.68;0.68;;;5.60;99.90;;;;;;5072778;28;20631;-72
2021/11/15 11:05:53;;;;;;;0.60;0.60;;;5.60;99.90;;;;;;5074208;28;20208;-73
2021/11/15 11:08:27;;;;;;;0.70;0.70;;;5.60;99.90;;;;;;5092073;28;20211;-73
2021/11/15 11:11:08;;;;;;;0.60;0.60;;;5.60;99.90;;;;;;5092159;28;20580;-74
2021/11/15 11:13:57;;;;;;;0.60;0.60;;;5.60;99.90;;;;;;5089037;28;20287;-74
2021/11/15 11:16:38;;;;;;;0.60;0.60;;;5.60;99.90;;;;;;5073856;28;20814;-73
2021/11/15 11:21:56;;;;;;;0.70;0.70;;;5.60;99.90;;;;;;5090130;28;20544;-72
2021/11/15 11:27:13;;;;;;;0.70;0.70;;;5.70;99.90;;;;;;5091438;28;20215;-73
2021/11/15 11:29:48;;;;;;;0.60;0.60;;;5.70;99.90;;;;;;5091716;28;20208;-72
2021/11/15 11:32:17;;;;;;;0.68;0.68;;;5.70;99.90;;;;;;5092119;28;20199;-71
2021/11/15 11:34:44;;;;;;;0.60;0.60;;;5.80;99.90;;;;;;5089059;28;20604;-72
2021/11/15 11:37:15;;;;;;;0.77;0.77;;;5.80;99.90;;;;;;5091983;28;20570;-72
2021/11/15 11:39:43;;;;;;;0.70;0.70;;;5.80;99.90;;;;;;5090304;28;20200;-72
2021/11/15 11:42:09;;;;;;;0.80;0.80;;;5.80;99.90;;;;;;5091846;28;20565;-73
2021/11/15 11:44:36;;;;;;;1.40;1.30;;;5.90;99.90;;;;;;5091642;28;20200;-74
2021/11/15 11:47:06;;;;;;;0.80;0.80;;;5.80;99.90;;;;;;5073477;28;20219;-74
2021/11/15 11:49:33;;;;;;;0.75;0.75;;;5.80;99.90;;;;;;5091173;28;20219;-72
2021/11/15 11:52:03;;;;;;;0.70;0.70;;;5.90;99.90;;;;;;5073130;28;20196;-75
2021/11/15 11:54:43;;;;;;;0.50;0.50;;;5.90;99.90;;;;;;5106093;28;20215;-75
2021/11/15 11:57:42;;;;;;;0.70;0.70;;;5.90;99.90;;;;;;5073257;28;20218;-73
2021/11/15 12:00:13;;;;;;;0.70;0.70;;;5.90;99.90;;;;;;5027966;28;20231;-75
2021/11/15 12:02:40;;;;;;;0.70;0.70;;;6.00;99.90;;;;;;5085796;28;20257;-74
2021/11/15 12:05:12;;;;;;;0.70;0.70;;;6.00;99.90;;;;;;5087325;28;20192;-73
2021/11/15 12:07:58;;;;;;;0.93;0.93;;;5.90;99.90;;;;;;5084458;28;20200;-75
2021/11/15 12:10:40;;;;;;;0.70;0.70;;;6.00;99.90;;;;;;5072879;28;20200;-75
2021/11/15 12:13:07;;;;;;;0.70;0.70;;;5.90;99.90;;;;;;5090106;28;20324;-74
2021/11/15 12:15:42;;;;;;;0.80;0.80;;;5.90;99.90;;;;;;5091191;28;20701;-74
2021/11/15 12:18:23;;;;;;;0.60;0.60;;;5.90;99.90;;;;;;5089739;28;20628;-74
2021/11/15 12:21:05;;;;;;;0.77;0.77;;;5.90;99.90;;;;;;5071586;28;20678;-77
2021/11/15 12:23:51;;;;;;;0.70;0.70;;;5.80;99.90;;;;;;5071695;28;20203;-73
2021/11/15 12:26:24;;;;;;;0.70;0.70;;;5.90;99.90;;;;;;5064276;28;20331;-73
2021/11/15 12:28:53;;;;;;;0.60;0.60;;;5.80;99.90;;;;;;5072821;28;20268;-74
2021/11/15 12:31:37;;;;;;;0.70;0.70;;;5.80;99.90;;;;;;5089761;28;20252;-73
2021/11/15 12:34:05;;;;;;;0.70;0.70;;;5.80;99.90;;;;;;5091154;28;20284;-73
2021/11/15 12:36:48;;;;;;;0.60;0.60;;;5.80;99.90;;;;;;5090887;28;20196;-73
2021/11/15 12:39:23;;;;;;;0.47;0.47;;;5.80;99.90;;;;;;5089802;28;20647;-73
2021/11/15 12:41:52;;;;;;;0.50;0.50;;;5.90;99.90;;;;;;5090868;28;20223;-73
2021/11/15 12:44:22;;;;;;;0.80;0.80;;;5.90;99.90;;;;;;5089542;28;20670;-73
2021/11/15 12:47:11;;;;;;;0.50;0.50;;;5.90;99.90;;;;;;5089340;28;20199;-76
2021/11/15 12:49:55;;;;;;;0.70;0.70;;;5.90;99.90;;;;;;5089246;28;20227;-75
2021/11/15 12:52:27;;;;;;;0.60;0.60;;;5.80;99.90;;;;;;5089374;28;20207;-73
2021/11/15 12:55:15;;;;;;;0.80;0.80;;;5.80;99.90;;;;;;5069057;28;20200;-73
2021/11/15 12:57:48;;;;;;;0.60;0.60;;;5.90;99.90;;;;;;5085748;28;20204;-73
2021/11/15 13:00:35;;;;;;;0.63;0.63;;;5.90;99.90;;;;;;5080003;28;20215;-73
2021/11/15 13:03:10;;;;;;;0.60;0.60;;;5.90;99.90;;;;;;5086312;28;20655;-74
2021/11/15 13:05:39;;;;;;;0.75;0.75;;;5.90;99.90;;;;;;5077419;28;20278;-73
2021/11/15 13:08:10;;;;;;;0.60;0.60;;;5.90;99.90;;;;;;5089383;28;20196;-73
2021/11/15 13:10:40;;;;;;;0.60;0.60;;;5.80;99.90;;;;;;5071511;28;20200;-73